sensor_id;sensor_type;location;lat;lon;timestamp;P1;durP1;ratioP1;P2;durP2;ratioP2
13832;SDS011;6987;19.472;-99.276;2022-07-09T00:00:38;5.13;;;1.83;;
13832;SDS011;6987;19.472;-99.276;2022-07-09T00:03:10;4.18;;;2.08;;
13832;SDS011;6987;19.472;-99.276;2022-07-09T00:05:40;3.03;;;2.33;;
13832;SDS011;6987;19.472;-99.276;2022-07-09T00:08:09;3.08;;;2.65;;
13832;SDS011;6987;19.472;-99.276;2022-07-09T00:10:40;4.72;;;2.67;;
13832;SDS011;6987;19.472;-99.276;2022-07-09T00:13:09;6.40;;;3.22;;
13832;SDS011;6987;19.472;-99.276;2022-07-09T00:15:38;2.90;;;2.70;;
13832;SDS011;6987;19.472;-99.276;2022-07-09T00:18:08;2.95;;;2.70;;
13832;SDS011;6987;19.472;-99.276;2022-07-09T00:20:37;9.60;;;3.85;;
13832;SDS011;6987;19.472;-99.276;2022-07-09T00:23:07;9.90;;;4.13;;
13832;SDS011;6987;19.472;-99.276;2022-07-09T00:25:37;5.30;;;3.47;;
13832;SDS011;6987;19.472;-99.276;2022-07-09T00:28:08;7.97;;;3.67;;
13832;SDS011;6987;19.472;-99.276;2022-07-09T00:30:37;8.77;;;3.83;;
13832;SDS011;6987;19.472;-99.276;2022-07-09T00:33:07;6.95;;;3.25;;
13832;SDS011;6987;19.472;-99.276;2022-07-09T00:35:36;3.55;;;3.25;;
13832;SDS011;6987;19.472;-99.276;2022-07-09T00:38:06;6.68;;;3.67;;
13832;SDS011;6987;19.472;-99.276;2022-07-09T00:40:35;5.53;;;3.22;;
13832;SDS011;6987;19.472;-99.276;2022-07-09T00:43:16;5.35;;;3.88;;
13832;SDS011;6987;19.472;-99.276;2022-07-09T00:45:47;7.60;;;4.60;;
13832;SDS011;6987;19.472;-99.276;2022-07-09T00:48:16;8.43;;;4.65;;
13832;SDS011;6987;19.472;-99.276;2022-07-09T00:50:47;8.05;;;4.10;;
13832;SDS011;6987;19.472;-99.276;2022-07-09T00:53:17;13.55;;;4.82;;
13832;SDS011;6987;19.472;-99.276;2022-07-09T00:55:50;7.00;;;3.63;;
13832;SDS011;6987;19.472;-99.276;2022-07-09T00:58:23;7.03;;;3.58;;
13832;SDS011;6987;19.472;-99.276;2022-07-09T01:00:52;6.40;;;4.15;;
13832;SDS011;6987;19.472;-99.276;2022-07-09T01:03:23;7.05;;;4.45;;
13832;SDS011;6987;19.472;-99.276;2022-07-09T01:05:52;10.15;;;4.20;;
13832;SDS011;6987;19.472;-99.276;2022-07-09T01:08:23;4.72;;;3.47;;
13832;SDS011;6987;19.472;-99.276;2022-07-09T01:10:54;5.22;;;3.65;;
13832;SDS011;6987;19.472;-99.276;2022-07-09T01:13:26;5.38;;;3.70;;
13832;SDS011;6987;19.472;-99.276;2022-07-09T01:15:58;6.55;;;4.50;;
13832;SDS011;6987;19.472;-99.276;2022-07-09T01:18:28;7.60;;;4.22;;
13832;SDS011;6987;19.472;-99.276;2022-07-09T01:21:00;6.57;;;3.92;;
13832;SDS011;6987;19.472;-99.276;2022-07-09T01:23:30;4.55;;;3.70;;
13832;SDS011;6987;19.472;-99.276;2022-07-09T01:26:00;5.85;;;4.15;;
13832;SDS011;6987;19.472;-99.276;2022-07-09T01:28:29;8.70;;;4.05;;
13832;SDS011;6987;19.472;-99.276;2022-07-09T01:30:58;8.23;;;4.00;;
13832;SDS011;6987;19.472;-99.276;2022-07-09T01:33:28;5.10;;;3.78;;
13832;SDS011;6987;19.472;-99.276;2022-07-09T01:36:00;5.40;;;3.78;;
13832;SDS011;6987;19.472;-99.276;2022-07-09T01:38:30;4.75;;;3.47;;
13832;SDS011;6987;19.472;-99.276;2022-07-09T01:40:59;9.07;;;4.30;;
13832;SDS011;6987;19.472;-99.276;2022-07-09T01:43:29;4.72;;;3.83;;
13832;SDS011;6987;19.472;-99.276;2022-07-09T01:45:59;6.65;;;4.38;;
13832;SDS011;6987;19.472;-99.276;2022-07-09T01:48:32;7.40;;;4.03;;
13832;SDS011;6987;19.472;-99.276;2022-07-09T01:51:04;5.22;;;3.35;;
13832;SDS011;6987;19.472;-99.276;2022-07-09T01:53:34;4.93;;;3.65;;
13832;SDS011;6987;19.472;-99.276;2022-07-09T01:56:06;7.70;;;3.13;;
13832;SDS011;6987;19.472;-99.276;2022-07-09T01:58:37;3.40;;;3.10;;
13832;SDS011;6987;19.472;-99.276;2022-07-09T02:01:07;4.60;;;3.17;;
13832;SDS011;6987;19.472;-99.276;2022-07-09T02:03:38;4.32;;;3.22;;
13832;SDS011;6987;19.472;-99.276;2022-07-09T02:06:10;3.45;;;2.85;;
13832;SDS011;6987;19.472;-99.276;2022-07-09T02:08:40;3.85;;;2.85;;
13832;SDS011;6987;19.472;-99.276;2022-07-09T02:11:12;3.45;;;2.90;;
13832;SDS011;6987;19.472;-99.276;2022-07-09T02:13:41;6.68;;;3.60;;
13832;SDS011;6987;19.472;-99.276;2022-07-09T02:16:10;2.80;;;2.70;;
13832;SDS011;6987;19.472;-99.276;2022-07-09T02:18:40;5.05;;;2.97;;
13832;SDS011;6987;19.472;-99.276;2022-07-09T02:21:12;7.25;;;3.25;;
13832;SDS011;6987;19.472;-99.276;2022-07-09T02:23:41;2.88;;;2.67;;
13832;SDS011;6987;19.472;-99.276;2022-07-09T02:26:11;5.28;;;2.90;;
13832;SDS011;6987;19.472;-99.276;2022-07-09T02:28:40;2.90;;;2.70;;
13832;SDS011;6987;19.472;-99.276;2022-07-09T02:31:10;4.03;;;2.78;;
13832;SDS011;6987;19.472;-99.276;2022-07-09T02:33:39;5.07;;;2.30;;
13832;SDS011;6987;19.472;-99.276;2022-07-09T02:36:08;3.67;;;2.30;;
13832;SDS011;6987;19.472;-99.276;2022-07-09T02:38:41;5.60;;;2.95;;
13832;SDS011;6987;19.472;-99.276;2022-07-09T02:41:10;5.05;;;3.42;;
13832;SDS011;6987;19.472;-99.276;2022-07-09T02:43:40;3.10;;;2.80;;
13832;SDS011;6987;19.472;-99.276;2022-07-09T02:46:10;3.58;;;2.42;;
13832;SDS011;6987;19.472;-99.276;2022-07-09T02:48:39;4.32;;;2.50;;
13832;SDS011;6987;19.472;-99.276;2022-07-09T02:51:09;3.35;;;2.65;;
13832;SDS011;6987;19.472;-99.276;2022-07-09T02:53:40;5.60;;;3.17;;
13832;SDS011;6987;19.472;-99.276;2022-07-09T02:56:09;6.20;;;2.92;;
13832;SDS011;6987;19.472;-99.276;2022-07-09T02:58:39;2.83;;;2.67;;
13832;SDS011;6987;19.472;-99.276;2022-07-09T03:01:09;6.05;;;2.92;;
13832;SDS011;6987;19.472;-99.276;2022-07-09T03:03:39;2.90;;;2.30;;
13832;SDS011;6987;19.472;-99.276;2022-07-09T03:06:09;5.28;;;3.20;;
13832;SDS011;6987;19.472;-99.276;2022-07-09T03:08:40;5.38;;;2.92;;
13832;SDS011;6987;19.472;-99.276;2022-07-09T03:11:09;3.40;;;3.10;;
13832;SDS011;6987;19.472;-99.276;2022-07-09T03:13:39;5.88;;;2.80;;
13832;SDS011;6987;19.472;-99.276;2022-07-09T03:16:08;2.95;;;2.85;;
13832;SDS011;6987;19.472;-99.276;2022-07-09T03:18:38;3.30;;;3.00;;
13832;SDS011;6987;19.472;-99.276;2022-07-09T03:21:07;3.28;;;2.97;;
13832;SDS011;6987;19.472;-99.276;2022-07-09T03:23:39;3.58;;;2.95;;
13832;SDS011;6987;19.472;-99.276;2022-07-09T03:26:08;5.85;;;2.67;;
13832;SDS011;6987;19.472;-99.276;2022-07-09T03:28:37;4.88;;;2.88;;
13832;SDS011;6987;19.472;-99.276;2022-07-09T03:31:07;5.68;;;3.20;;
13832;SDS011;6987;19.472;-99.276;2022-07-09T03:33:39;5.57;;;3.45;;
13832;SDS011;6987;19.472;-99.276;2022-07-09T03:36:09;8.18;;;3.38;;
13832;SDS011;6987;19.472;-99.276;2022-07-09T03:38:40;2.75;;;2.60;;
13832;SDS011;6987;19.472;-99.276;2022-07-09T03:41:09;2.95;;;2.72;;
13832;SDS011;6987;19.472;-99.276;2022-07-09T03:43:39;3.33;;;2.80;;
13832;SDS011;6987;19.472;-99.276;2022-07-09T03:46:08;3.03;;;2.75;;
13832;SDS011;6987;19.472;-99.276;2022-07-09T03:48:37;3.03;;;2.83;;
13832;SDS011;6987;19.472;-99.276;2022-07-09T03:51:07;3.45;;;2.90;;
13832;SDS011;6987;19.472;-99.276;2022-07-09T03:53:36;3.75;;;2.63;;
13832;SDS011;6987;19.472;-99.276;2022-07-09T03:56:07;3.45;;;2.55;;
13832;SDS011;6987;19.472;-99.276;2022-07-09T03:58:36;7.20;;;3.45;;
13832;SDS011;6987;19.472;-99.276;2022-07-09T04:01:09;7.47;;;3.42;;
13832;SDS011;6987;19.472;-99.276;2022-07-09T04:03:38;3.17;;;2.80;;
13832;SDS011;6987;19.472;-99.276;2022-07-09T04:06:07;5.60;;;3.33;;
13832;SDS011;6987;19.472;-99.276;2022-07-09T04:08:40;6.25;;;2.95;;
13832;SDS011;6987;19.472;-99.276;2022-07-09T04:11:11;3.47;;;2.78;;
13832;SDS011;6987;19.472;-99.276;2022-07-09T04:13:41;6.88;;;3.72;;
13832;SDS011;6987;19.472;-99.276;2022-07-09T04:16:10;13.05;;;3.33;;
13832;SDS011;6987;19.472;-99.276;2022-07-09T04:18:39;5.82;;;3.33;;
13832;SDS011;6987;19.472;-99.276;2022-07-09T04:21:10;6.55;;;3.00;;
13832;SDS011;6987;19.472;-99.276;2022-07-09T04:23:40;6.60;;;3.35;;
13832;SDS011;6987;19.472;-99.276;2022-07-09T04:26:11;3.83;;;3.50;;
13832;SDS011;6987;19.472;-99.276;2022-07-09T04:28:41;3.08;;;2.88;;
13832;SDS011;6987;19.472;-99.276;2022-07-09T04:31:10;3.35;;;3.15;;
13832;SDS011;6987;19.472;-99.276;2022-07-09T04:33:43;3.95;;;3.60;;
13832;SDS011;6987;19.472;-99.276;2022-07-09T04:36:13;5.30;;;3.28;;
13832;SDS011;6987;19.472;-99.276;2022-07-09T04:38:42;3.53;;;3.22;;
13832;SDS011;6987;19.472;-99.276;2022-07-09T04:41:14;5.68;;;3.60;;
13832;SDS011;6987;19.472;-99.276;2022-07-09T04:43:44;11.50;;;3.53;;
13832;SDS011;6987;19.472;-99.276;2022-07-09T04:46:13;6.15;;;3.28;;
13832;SDS011;6987;19.472;-99.276;2022-07-09T04:48:43;5.28;;;3.10;;
13832;SDS011;6987;19.472;-99.276;2022-07-09T04:51:13;3.25;;;2.90;;
13832;SDS011;6987;19.472;-99.276;2022-07-09T04:53:43;4.32;;;3.63;;
13832;SDS011;6987;19.472;-99.276;2022-07-09T04:56:14;3.95;;;3.33;;
13832;SDS011;6987;19.472;-99.276;2022-07-09T04:58:44;3.08;;;2.80;;
13832;SDS011;6987;19.472;-99.276;2022-07-09T05:01:19;3.33;;;3.13;;
13832;SDS011;6987;19.472;-99.276;2022-07-09T05:03:49;3.42;;;3.13;;
13832;SDS011;6987;19.472;-99.276;2022-07-09T05:06:18;4.72;;;3.40;;
13832;SDS011;6987;19.472;-99.276;2022-07-09T05:08:48;3.20;;;3.00;;
13832;SDS011;6987;19.472;-99.276;2022-07-09T05:11:19;10.98;;;3.53;;
13832;SDS011;6987;19.472;-99.276;2022-07-09T05:13:49;4.05;;;3.35;;
13832;SDS011;6987;19.472;-99.276;2022-07-09T05:16:18;4.45;;;3.55;;
13832;SDS011;6987;19.472;-99.276;2022-07-09T05:18:47;4.60;;;3.72;;
13832;SDS011;6987;19.472;-99.276;2022-07-09T05:21:17;3.22;;;3.03;;
13832;SDS011;6987;19.472;-99.276;2022-07-09T05:23:46;6.70;;;3.80;;
13832;SDS011;6987;19.472;-99.276;2022-07-09T05:26:16;7.60;;;4.50;;
13832;SDS011;6987;19.472;-99.276;2022-07-09T05:28:48;4.38;;;3.70;;
13832;SDS011;6987;19.472;-99.276;2022-07-09T05:31:18;4.05;;;3.65;;
13832;SDS011;6987;19.472;-99.276;2022-07-09T05:33:47;4.55;;;4.18;;
13832;SDS011;6987;19.472;-99.276;2022-07-09T05:36:16;5.53;;;4.05;;
13832;SDS011;6987;19.472;-99.276;2022-07-09T05:38:46;5.82;;;4.53;;
13832;SDS011;6987;19.472;-99.276;2022-07-09T05:41:15;5.63;;;4.18;;
13832;SDS011;6987;19.472;-99.276;2022-07-09T05:43:46;8.43;;;4.18;;
13832;SDS011;6987;19.472;-99.276;2022-07-09T05:46:19;7.07;;;4.70;;
13832;SDS011;6987;19.472;-99.276;2022-07-09T05:48:48;10.48;;;4.43;;
13832;SDS011;6987;19.472;-99.276;2022-07-09T05:51:18;6.13;;;3.92;;
13832;SDS011;6987;19.472;-99.276;2022-07-09T05:53:48;6.63;;;4.18;;
13832;SDS011;6987;19.472;-99.276;2022-07-09T05:56:18;6.47;;;3.90;;
13832;SDS011;6987;19.472;-99.276;2022-07-09T05:58:49;4.78;;;3.78;;
13832;SDS011;6987;19.472;-99.276;2022-07-09T06:01:18;9.23;;;4.05;;
13832;SDS011;6987;19.472;-99.276;2022-07-09T06:03:48;4.72;;;4.32;;
13832;SDS011;6987;19.472;-99.276;2022-07-09T06:06:18;4.93;;;4.32;;
13832;SDS011;6987;19.472;-99.276;2022-07-09T06:08:48;5.30;;;4.32;;
13832;SDS011;6987;19.472;-99.276;2022-07-09T06:11:17;7.80;;;4.30;;
13832;SDS011;6987;19.472;-99.276;2022-07-09T06:13:47;4.30;;;3.90;;
13832;SDS011;6987;19.472;-99.276;2022-07-09T06:16:18;6.57;;;4.00;;
13832;SDS011;6987;19.472;-99.276;2022-07-09T06:18:47;5.38;;;3.88;;
13832;SDS011;6987;19.472;-99.276;2022-07-09T06:21:17;6.68;;;4.78;;
13832;SDS011;6987;19.472;-99.276;2022-07-09T06:23:46;4.78;;;4.05;;
13832;SDS011;6987;19.472;-99.276;2022-07-09T06:26:16;6.40;;;4.45;;
13832;SDS011;6987;19.472;-99.276;2022-07-09T06:28:46;9.52;;;5.00;;
13832;SDS011;6987;19.472;-99.276;2022-07-09T06:31:17;4.90;;;4.35;;
13832;SDS011;6987;19.472;-99.276;2022-07-09T06:33:46;6.05;;;4.15;;
13832;SDS011;6987;19.472;-99.276;2022-07-09T06:36:16;8.68;;;4.70;;
13832;SDS011;6987;19.472;-99.276;2022-07-09T06:38:45;4.07;;;3.78;;
13832;SDS011;6987;19.472;-99.276;2022-07-09T06:41:32;5.03;;;4.53;;
13832;SDS011;6987;19.472;-99.276;2022-07-09T06:44:03;8.75;;;4.97;;
13832;SDS011;6987;19.472;-99.276;2022-07-09T06:46:32;6.93;;;3.95;;
13832;SDS011;6987;19.472;-99.276;2022-07-09T06:49:02;6.40;;;4.40;;
13832;SDS011;6987;19.472;-99.276;2022-07-09T06:51:33;5.03;;;4.57;;
13832;SDS011;6987;19.472;-99.276;2022-07-09T06:54:03;5.93;;;4.50;;
13832;SDS011;6987;19.472;-99.276;2022-07-09T06:56:32;7.05;;;4.63;;
13832;SDS011;6987;19.472;-99.276;2022-07-09T06:59:03;4.85;;;4.43;;
13832;SDS011;6987;19.472;-99.276;2022-07-09T07:01:33;6.47;;;4.60;;
13832;SDS011;6987;19.472;-99.276;2022-07-09T07:04:06;5.75;;;4.40;;
13832;SDS011;6987;19.472;-99.276;2022-07-09T07:06:37;4.45;;;4.05;;
13832;SDS011;6987;19.472;-99.276;2022-07-09T07:09:07;6.75;;;4.20;;
13832;SDS011;6987;19.472;-99.276;2022-07-09T07:11:36;5.47;;;4.97;;
13832;SDS011;6987;19.472;-99.276;2022-07-09T07:14:08;7.05;;;4.43;;
13832;SDS011;6987;19.472;-99.276;2022-07-09T07:16:38;5.35;;;4.90;;
13832;SDS011;6987;19.472;-99.276;2022-07-09T07:19:10;5.68;;;4.55;;
13832;SDS011;6987;19.472;-99.276;2022-07-09T07:21:40;5.45;;;4.95;;
13832;SDS011;6987;19.472;-99.276;2022-07-09T07:24:09;5.35;;;4.85;;
13832;SDS011;6987;19.472;-99.276;2022-07-09T07:26:39;5.60;;;5.03;;
13832;SDS011;6987;19.472;-99.276;2022-07-09T07:29:10;8.40;;;4.88;;
13832;SDS011;6987;19.472;-99.276;2022-07-09T07:31:40;7.05;;;4.93;;
13832;SDS011;6987;19.472;-99.276;2022-07-09T07:34:09;5.38;;;4.90;;
13832;SDS011;6987;19.472;-99.276;2022-07-09T07:36:38;4.95;;;4.55;;
13832;SDS011;6987;19.472;-99.276;2022-07-09T07:39:07;5.55;;;4.75;;
13832;SDS011;6987;19.472;-99.276;2022-07-09T07:41:37;7.85;;;4.70;;
13832;SDS011;6987;19.472;-99.276;2022-07-09T07:44:07;7.68;;;5.03;;
13832;SDS011;6987;19.472;-99.276;2022-07-09T07:46:38;5.22;;;4.78;;
13832;SDS011;6987;19.472;-99.276;2022-07-09T07:49:07;8.95;;;5.53;;
13832;SDS011;6987;19.472;-99.276;2022-07-09T07:51:37;8.15;;;4.90;;
13832;SDS011;6987;19.472;-99.276;2022-07-09T07:54:08;5.65;;;5.25;;
13832;SDS011;6987;19.472;-99.276;2022-07-09T07:56:38;8.82;;;5.22;;
13832;SDS011;6987;19.472;-99.276;2022-07-09T07:59:07;5.97;;;5.43;;
13832;SDS011;6987;19.472;-99.276;2022-07-09T08:01:38;6.57;;;5.35;;
13832;SDS011;6987;19.472;-99.276;2022-07-09T08:04:07;5.40;;;4.95;;
13832;SDS011;6987;19.472;-99.276;2022-07-09T08:06:37;5.82;;;5.18;;
13832;SDS011;6987;19.472;-99.276;2022-07-09T08:09:06;6.25;;;4.68;;
13832;SDS011;6987;19.472;-99.276;2022-07-09T08:11:35;7.07;;;5.57;;
13832;SDS011;6987;19.472;-99.276;2022-07-09T08:14:04;6.43;;;5.07;;
13832;SDS011;6987;19.472;-99.276;2022-07-09T08:16:34;5.57;;;5.10;;
13832;SDS011;6987;19.472;-99.276;2022-07-09T08:19:05;6.70;;;5.72;;
13832;SDS011;6987;19.472;-99.276;2022-07-09T08:21:34;5.63;;;5.13;;
13832;SDS011;6987;19.472;-99.276;2022-07-09T08:24:04;8.48;;;5.40;;
13832;SDS011;6987;19.472;-99.276;2022-07-09T08:26:33;8.10;;;5.38;;
13832;SDS011;6987;19.472;-99.276;2022-07-09T08:29:02;6.35;;;5.38;;
13832;SDS011;6987;19.472;-99.276;2022-07-09T08:31:32;6.18;;;5.43;;
13832;SDS011;6987;19.472;-99.276;2022-07-09T08:34:01;5.50;;;5.10;;
13832;SDS011;6987;19.472;-99.276;2022-07-09T08:36:32;11.88;;;6.38;;
13832;SDS011;6987;19.472;-99.276;2022-07-09T08:39:01;6.60;;;6.00;;
13832;SDS011;6987;19.472;-99.276;2022-07-09T08:41:30;7.10;;;6.40;;
13832;SDS011;6987;19.472;-99.276;2022-07-09T08:44:00;10.77;;;6.47;;
13832;SDS011;6987;19.472;-99.276;2022-07-09T08:46:32;6.82;;;6.07;;
13832;SDS011;6987;19.472;-99.276;2022-07-09T08:49:01;6.50;;;5.90;;
13832;SDS011;6987;19.472;-99.276;2022-07-09T08:51:34;8.77;;;6.43;;
13832;SDS011;6987;19.472;-99.276;2022-07-09T08:54:04;8.25;;;6.97;;
13832;SDS011;6987;19.472;-99.276;2022-07-09T08:56:34;8.23;;;5.57;;
13832;SDS011;6987;19.472;-99.276;2022-07-09T08:59:06;6.18;;;5.65;;
13832;SDS011;6987;19.472;-99.276;2022-07-09T09:01:35;8.75;;;5.90;;
13832;SDS011;6987;19.472;-99.276;2022-07-09T09:04:04;7.30;;;5.75;;
13832;SDS011;6987;19.472;-99.276;2022-07-09T09:06:38;7.97;;;5.47;;
13832;SDS011;6987;19.472;-99.276;2022-07-09T09:09:08;11.68;;;5.97;;
13832;SDS011;6987;19.472;-99.276;2022-07-09T09:11:46;10.70;;;6.88;;
13832;SDS011;6987;19.472;-99.276;2022-07-09T09:14:20;7.13;;;5.55;;
13832;SDS011;6987;19.472;-99.276;2022-07-09T09:16:51;7.38;;;6.47;;
13832;SDS011;6987;19.472;-99.276;2022-07-09T09:19:22;6.78;;;6.18;;
13832;SDS011;6987;19.472;-99.276;2022-07-09T09:21:55;7.50;;;5.35;;
13832;SDS011;6987;19.472;-99.276;2022-07-09T09:24:25;9.02;;;5.90;;
13832;SDS011;6987;19.472;-99.276;2022-07-09T09:26:58;6.30;;;5.70;;
13832;SDS011;6987;19.472;-99.276;2022-07-09T09:29:29;8.63;;;6.75;;
13832;SDS011;6987;19.472;-99.276;2022-07-09T09:32:08;6.57;;;5.95;;
13832;SDS011;6987;19.472;-99.276;2022-07-09T09:34:38;10.10;;;5.70;;
13832;SDS011;6987;19.472;-99.276;2022-07-09T09:37:09;6.03;;;5.43;;
13832;SDS011;6987;19.472;-99.276;2022-07-09T09:39:48;6.80;;;6.15;;
13832;SDS011;6987;19.472;-99.276;2022-07-09T09:42:18;6.30;;;5.70;;
13832;SDS011;6987;19.472;-99.276;2022-07-09T09:44:50;8.77;;;6.07;;
13832;SDS011;6987;19.472;-99.276;2022-07-09T09:47:20;6.50;;;5.90;;
13832;SDS011;6987;19.472;-99.276;2022-07-09T09:49:51;5.85;;;5.32;;
13832;SDS011;6987;19.472;-99.276;2022-07-09T09:52:25;6.70;;;6.10;;
13832;SDS011;6987;19.472;-99.276;2022-07-09T09:54:55;8.05;;;6.32;;
13832;SDS011;6987;19.472;-99.276;2022-07-09T09:57:26;7.00;;;6.38;;
13832;SDS011;6987;19.472;-99.276;2022-07-09T09:59:56;8.98;;;6.15;;
13832;SDS011;6987;19.472;-99.276;2022-07-09T10:02:26;9.05;;;6.82;;
13832;SDS011;6987;19.472;-99.276;2022-07-09T10:04:59;6.72;;;6.13;;
13832;SDS011;6987;19.472;-99.276;2022-07-09T10:07:30;6.55;;;5.95;;
13832;SDS011;6987;19.472;-99.276;2022-07-09T10:09:59;8.18;;;5.95;;
13832;SDS011;6987;19.472;-99.276;2022-07-09T10:12:29;7.07;;;6.25;;
13832;SDS011;6987;19.472;-99.276;2022-07-09T10:15:00;14.88;;;7.28;;
13832;SDS011;6987;19.472;-99.276;2022-07-09T10:17:38;8.15;;;6.13;;
13832;SDS011;6987;19.472;-99.276;2022-07-09T10:20:09;6.93;;;6.18;;
13832;SDS011;6987;19.472;-99.276;2022-07-09T10:22:40;7.15;;;6.45;;
13832;SDS011;6987;19.472;-99.276;2022-07-09T10:25:10;12.57;;;6.63;;
13832;SDS011;6987;19.472;-99.276;2022-07-09T10:27:41;6.80;;;6.10;;
13832;SDS011;6987;19.472;-99.276;2022-07-09T10:30:22;8.00;;;7.20;;
13832;SDS011;6987;19.472;-99.276;2022-07-09T10:33:01;8.05;;;7.15;;
13832;SDS011;6987;19.472;-99.276;2022-07-09T10:35:40;10.05;;;8.40;;
13832;SDS011;6987;19.472;-99.276;2022-07-09T10:38:12;8.32;;;7.53;;
13832;SDS011;6987;19.472;-99.276;2022-07-09T10:40:45;13.13;;;8.52;;
13832;SDS011;6987;19.472;-99.276;2022-07-09T10:43:16;11.93;;;7.47;;
13832;SDS011;6987;19.472;-99.276;2022-07-09T10:45:45;10.20;;;8.02;;
13832;SDS011;6987;19.472;-99.276;2022-07-09T10:48:14;11.57;;;8.88;;
13832;SDS011;6987;19.472;-99.276;2022-07-09T10:50:44;10.43;;;8.73;;
13832;SDS011;6987;19.472;-99.276;2022-07-09T10:53:16;12.43;;;8.93;;
13832;SDS011;6987;19.472;-99.276;2022-07-09T10:55:45;10.40;;;8.73;;
13832;SDS011;6987;19.472;-99.276;2022-07-09T10:58:17;9.57;;;7.93;;
13832;SDS011;6987;19.472;-99.276;2022-07-09T11:00:54;13.88;;;10.88;;
13832;SDS011;6987;19.472;-99.276;2022-07-09T11:03:26;10.07;;;8.65;;
13832;SDS011;6987;19.472;-99.276;2022-07-09T11:06:11;9.60;;;8.63;;
13832;SDS011;6987;19.472;-99.276;2022-07-09T11:08:42;12.68;;;10.20;;
13832;SDS011;6987;19.472;-99.276;2022-07-09T11:11:11;12.63;;;9.93;;
13832;SDS011;6987;19.472;-99.276;2022-07-09T11:13:49;13.02;;;9.23;;
13832;SDS011;6987;19.472;-99.276;2022-07-09T11:16:21;12.05;;;8.98;;
13832;SDS011;6987;19.472;-99.276;2022-07-09T11:18:52;9.55;;;8.57;;
13832;SDS011;6987;19.472;-99.276;2022-07-09T11:21:23;12.50;;;8.90;;
13832;SDS011;6987;19.472;-99.276;2022-07-09T11:23:56;10.82;;;9.70;;
13832;SDS011;6987;19.472;-99.276;2022-07-09T11:26:26;10.73;;;9.52;;
13832;SDS011;6987;19.472;-99.276;2022-07-09T11:28:56;15.70;;;11.48;;
13832;SDS011;6987;19.472;-99.276;2022-07-09T11:31:26;17.00;;;11.07;;
13832;SDS011;6987;19.472;-99.276;2022-07-09T11:33:55;13.43;;;11.48;;
13832;SDS011;6987;19.472;-99.276;2022-07-09T11:36:41;14.90;;;12.00;;
13832;SDS011;6987;19.472;-99.276;2022-07-09T11:39:22;14.63;;;12.70;;
13832;SDS011;6987;19.472;-99.276;2022-07-09T11:41:52;11.32;;;10.20;;
13832;SDS011;6987;19.472;-99.276;2022-07-09T11:44:23;13.00;;;11.57;;
13832;SDS011;6987;19.472;-99.276;2022-07-09T11:47:02;14.40;;;12.93;;
13832;SDS011;6987;19.472;-99.276;2022-07-09T11:49:37;11.95;;;9.13;;
13832;SDS011;6987;19.472;-99.276;2022-07-09T11:52:17;15.60;;;10.50;;
13832;SDS011;6987;19.472;-99.276;2022-07-09T11:54:58;16.55;;;11.02;;
13832;SDS011;6987;19.472;-99.276;2022-07-09T11:57:29;11.55;;;10.32;;
13832;SDS011;6987;19.472;-99.276;2022-07-09T11:59:59;14.25;;;10.93;;
13832;SDS011;6987;19.472;-99.276;2022-07-09T12:02:30;13.77;;;11.23;;
13832;SDS011;6987;19.472;-99.276;2022-07-09T12:05:00;15.00;;;12.05;;
13832;SDS011;6987;19.472;-99.276;2022-07-09T12:07:31;13.93;;;12.18;;
13832;SDS011;6987;19.472;-99.276;2022-07-09T12:10:03;15.68;;;12.00;;
13832;SDS011;6987;19.472;-99.276;2022-07-09T12:12:33;14.43;;;11.10;;
13832;SDS011;6987;19.472;-99.276;2022-07-09T12:15:06;15.27;;;10.75;;
13832;SDS011;6987;19.472;-99.276;2022-07-09T12:17:36;14.15;;;11.98;;
13832;SDS011;6987;19.472;-99.276;2022-07-09T12:20:05;15.38;;;11.95;;
13832;SDS011;6987;19.472;-99.276;2022-07-09T12:22:35;13.73;;;12.35;;
13832;SDS011;6987;19.472;-99.276;2022-07-09T12:25:09;13.85;;;11.57;;
13832;SDS011;6987;19.472;-99.276;2022-07-09T12:27:39;13.32;;;12.00;;
13832;SDS011;6987;19.472;-99.276;2022-07-09T12:30:08;12.02;;;9.98;;
13832;SDS011;6987;19.472;-99.276;2022-07-09T12:32:38;14.50;;;12.98;;
13832;SDS011;6987;19.472;-99.276;2022-07-09T12:35:08;13.88;;;12.20;;
13832;SDS011;6987;19.472;-99.276;2022-07-09T12:37:38;14.13;;;12.48;;
13832;SDS011;6987;19.472;-99.276;2022-07-09T12:40:11;13.63;;;12.23;;
13832;SDS011;6987;19.472;-99.276;2022-07-09T12:42:40;14.32;;;11.43;;
13832;SDS011;6987;19.472;-99.276;2022-07-09T12:45:09;13.70;;;11.23;;
13832;SDS011;6987;19.472;-99.276;2022-07-09T12:47:39;14.68;;;13.05;;
13832;SDS011;6987;19.472;-99.276;2022-07-09T12:50:08;14.57;;;12.05;;
13832;SDS011;6987;19.472;-99.276;2022-07-09T12:52:37;15.60;;;12.35;;
13832;SDS011;6987;19.472;-99.276;2022-07-09T12:55:07;18.05;;;13.75;;
13832;SDS011;6987;19.472;-99.276;2022-07-09T12:57:38;13.50;;;11.88;;
13832;SDS011;6987;19.472;-99.276;2022-07-09T13:00:08;15.65;;;12.07;;
13832;SDS011;6987;19.472;-99.276;2022-07-09T13:02:39;17.85;;;13.35;;
13832;SDS011;6987;19.472;-99.276;2022-07-09T13:05:09;17.08;;;11.93;;
13832;SDS011;6987;19.472;-99.276;2022-07-09T13:07:40;16.73;;;12.75;;
13832;SDS011;6987;19.472;-99.276;2022-07-09T13:10:11;17.73;;;13.20;;
13832;SDS011;6987;19.472;-99.276;2022-07-09T13:12:40;17.85;;;13.32;;
13832;SDS011;6987;19.472;-99.276;2022-07-09T13:15:10;21.38;;;14.15;;
13832;SDS011;6987;19.472;-99.276;2022-07-09T13:17:39;19.55;;;13.52;;
13832;SDS011;6987;19.472;-99.276;2022-07-09T13:20:09;16.95;;;13.75;;
13832;SDS011;6987;19.472;-99.276;2022-07-09T13:22:38;20.27;;;13.80;;
13832;SDS011;6987;19.472;-99.276;2022-07-09T13:25:08;19.05;;;14.10;;
13832;SDS011;6987;19.472;-99.276;2022-07-09T13:27:39;19.90;;;14.80;;
13832;SDS011;6987;19.472;-99.276;2022-07-09T13:30:08;18.50;;;14.45;;
13832;SDS011;6987;19.472;-99.276;2022-07-09T13:32:39;15.95;;;14.25;;
13832;SDS011;6987;19.472;-99.276;2022-07-09T13:35:08;17.20;;;13.98;;
13832;SDS011;6987;19.472;-99.276;2022-07-09T13:37:37;19.30;;;14.38;;
13832;SDS011;6987;19.472;-99.276;2022-07-09T13:40:07;18.35;;;14.18;;
13832;SDS011;6987;19.472;-99.276;2022-07-09T13:42:38;17.50;;;15.05;;
13832;SDS011;6987;19.472;-99.276;2022-07-09T13:45:08;20.17;;;14.55;;
13832;SDS011;6987;19.472;-99.276;2022-07-09T13:47:37;15.15;;;13.27;;
13832;SDS011;6987;19.472;-99.276;2022-07-09T13:50:07;20.60;;;14.07;;
13832;SDS011;6987;19.472;-99.276;2022-07-09T13:52:36;19.02;;;13.35;;
13832;SDS011;6987;19.472;-99.276;2022-07-09T13:55:06;16.73;;;14.48;;
13832;SDS011;6987;19.472;-99.276;2022-07-09T13:57:35;15.38;;;13.55;;
13832;SDS011;6987;19.472;-99.276;2022-07-09T14:00:07;17.38;;;13.80;;
13832;SDS011;6987;19.472;-99.276;2022-07-09T14:02:37;14.82;;;13.27;;
13832;SDS011;6987;19.472;-99.276;2022-07-09T14:05:14;15.43;;;13.02;;
13832;SDS011;6987;19.472;-99.276;2022-07-09T14:07:43;16.10;;;14.40;;
13832;SDS011;6987;19.472;-99.276;2022-07-09T14:10:12;19.00;;;14.10;;
13832;SDS011;6987;19.472;-99.276;2022-07-09T14:12:43;15.93;;;13.93;;
13832;SDS011;6987;19.472;-99.276;2022-07-09T14:15:13;15.15;;;13.07;;
13832;SDS011;6987;19.472;-99.276;2022-07-09T14:17:43;16.60;;;14.20;;
13832;SDS011;6987;19.472;-99.276;2022-07-09T14:20:14;18.52;;;13.88;;
13832;SDS011;6987;19.472;-99.276;2022-07-09T14:22:45;17.98;;;13.80;;
13832;SDS011;6987;19.472;-99.276;2022-07-09T14:25:14;19.58;;;14.88;;
13832;SDS011;6987;19.472;-99.276;2022-07-09T14:27:45;15.52;;;13.75;;
13832;SDS011;6987;19.472;-99.276;2022-07-09T14:30:16;16.00;;;14.07;;
13832;SDS011;6987;19.472;-99.276;2022-07-09T14:32:45;18.70;;;15.45;;
13832;SDS011;6987;19.472;-99.276;2022-07-09T14:35:15;18.83;;;14.88;;
13832;SDS011;6987;19.472;-99.276;2022-07-09T14:37:44;25.08;;;14.70;;
13832;SDS011;6987;19.472;-99.276;2022-07-09T14:40:13;19.50;;;14.73;;
13832;SDS011;6987;19.472;-99.276;2022-07-09T14:42:42;15.77;;;13.48;;
13832;SDS011;6987;19.472;-99.276;2022-07-09T14:45:13;17.88;;;14.52;;
13832;SDS011;6987;19.472;-99.276;2022-07-09T14:47:42;21.23;;;13.75;;